Barry University, Florida
Current Conditions -  °F | °C
As of 8:53 PM on Thursday 20 Nov 2014 (Local Time) from KOPF Reporting Station
Few Clouds Few Clouds  
Wind Chill: 73°   Ceiling: Unl
Heat Index: 73°   Visibility: 10mi
Dew Point: 60°   Wind: 14mph
Humidity: 64%   Direction: 70°ENE
Pressure: 30.15"   Gusts: NA
Location:  25.8935°N, 80.1832°W
Report Text: KOPF 210153Z AUTO 07012KT 10SM FEW065 23/16 A3015 RMK AO2 SLP209 T02280156
Loading
Personal Weather Stations






























Interactive Weather Map New forecast layout! Learn more

10-Day Weather Forecast

Advertisements
Track Severe Weather on mobile